AYNZ

Details ICAO AYNZ (LAE)
Name Nadzab
Region Papua New Guinea
Timezone Pacific/Port_Moresby (UTC+10.0)
Plans Departing 15
Arriving 6
Stats Elevation 46 ft / 14 m (AMSL)
Location -6.569829° 146.726160°
Runways 1
Magnetic Variation 5.330° E
Sunrise 2018-05-22 20:17:31 UTC / 2018-05-23 06:17:31 Local
Sunset 2018-05-23 08:04:57 UTC / 2018-05-23 18:04:57 Local
Advertisement - Login to hide

Runways

ID Width Length Bearing (true) Bearing (mag) Surface Threshold Offset Overrun Length
09 98 ft / 30 m 8,002 ft / 2,439 m 95.00° 89.67° Asphalt 0 ft / 0 m 197 ft / 60 m
27 98 ft / 30 m 8,002 ft / 2,439 m 275.00° 269.67° Asphalt 0 ft / 0 m 194 ft / 59 m

Map

Weather


0- 5 10 15 20 25 30 35+ Temperature / ° C

Clouds and Precipitation
Forecast for 2018-05-23 00:00 UTC. Updated 28 minutes ago

Ground ~20,000 ft ~40,000 ft Winds

METAR

AYNZ 222300Z 11005KT 9999 FEW025 SCT040 25/23 Q1014 RMK

TAF

Not found

Frequencies

Recorded 127.70 MHz LAE AWOS
Warning: Do not use this data for real-world aviation or navigation. No guarantee of current accuracy is given.